Time;durP1;ratioP1;P1;durP2;ratioP2;P2;SDS_P1;SDS_P2;PMS_P1;PMS_P2;Temp;Humidity;BMP_temperature;BMP_pressure;BME280_temperature;BME280_humidity;BME280_pressure;Samples;Min_cycle;Max_cycle;Signal;HPM_P1;HPM_P2
2023/04/20 00:01:43;;;;;;;;;;;8.00;99.90;;;;;;5095392;28;20285;-65
2023/04/20 00:04:09;;;;;;;;;;;7.90;99.90;;;;;;5095561;28;19922;-64
2023/04/20 00:06:35;;;;;;;;;;;7.80;99.90;;;;;;5095652;28;20007;-65
2023/04/20 00:09:01;;;;;;;;;;;7.60;99.90;;;;;;5095522;28;20004;-65
2023/04/20 00:11:27;;;;;;;;;;;7.60;99.90;;;;;;5095423;28;19916;-64
2023/04/20 00:13:52;;;;;;;;;;;7.60;99.90;;;;;;5095233;28;19964;-64
2023/04/20 00:16:18;;;;;;;;;;;7.60;99.90;;;;;;5095425;28;19920;-64
2023/04/20 00:18:47;;;;;;;;;;;7.70;99.90;;;;;;5095355;28;20327;-64
2023/04/20 00:21:13;;;;;;;;;;;7.70;99.90;;;;;;5095409;28;19970;-64
2023/04/20 00:23:40;;;;;;;;;;;7.70;99.90;;;;;;5095135;28;19916;-64
2023/04/20 00:26:06;;;;;;;;;;;7.70;99.90;;;;;;5095412;28;20397;-64
2023/04/20 00:28:32;;;;;;;;;;;7.70;99.90;;;;;;5095286;28;20251;-64
2023/04/20 00:30:57;;;;;;;;;;;7.60;99.90;;;;;;5077126;28;20578;-64
2023/04/20 00:33:23;;;;;;;;;;;7.40;99.90;;;;;;5076667;28;20297;-65
2023/04/20 00:35:49;;;;;;;;;;;7.40;99.90;;;;;;5095166;28;19919;-64
2023/04/20 00:38:15;;;;;;;;;;;7.40;99.90;;;;;;5076990;28;20353;-64
2023/04/20 00:40:47;;;;;;;;;;;7.50;99.90;;;;;;5095160;28;19923;-64
2023/04/20 00:43:14;;;;;;;;;;;7.50;99.90;;;;;;5076940;28;20412;-64
2023/04/20 00:45:40;;;;;;;;;;;7.40;99.90;;;;;;5076800;28;19922;-64
2023/04/20 00:48:06;;;;;;;;;;;7.40;99.90;;;;;;5095037;28;20003;-64
2023/04/20 00:50:36;;;;;;;;;;;7.30;99.90;;;;;;5076743;28;20005;-64
2023/04/20 00:53:06;;;;;;;;;;;7.30;99.90;;;;;;5076693;28;20003;-64
2023/04/20 00:55:32;;;;;;;;;;;7.10;99.90;;;;;;5094846;28;19923;-64
2023/04/20 00:57:58;;;;;;;;;;;7.00;99.90;;;;;;5095125;28;19969;-64
2023/04/20 01:00:25;;;;;;;;;;;7.00;99.90;;;;;;5076707;28;19959;-64
2023/04/20 01:02:51;;;;;;;;;;;6.90;99.90;;;;;;5094863;28;19908;-64
2023/04/20 01:05:16;;;;;;;;;;;6.90;99.90;;;;;;5095072;28;19951;-64
2023/04/20 01:07:42;;;;;;;;;;;6.90;99.90;;;;;;5076760;28;19968;-64
2023/04/20 01:10:08;;;;;;;;;;;7.00;99.90;;;;;;5094699;28;19923;-64
2023/04/20 01:12:34;;;;;;;;;;;7.00;99.90;;;;;;5094713;28;19923;-64
2023/04/20 01:15:01;;;;;;;;;;;7.00;99.90;;;;;;5094793;28;19961;-64
2023/04/20 01:17:27;;;;;;;;;;;6.90;99.90;;;;;;5076770;28;20242;-64
2023/04/20 01:19:53;;;;;;;;;;;6.90;99.90;;;;;;5094694;28;19916;-64
2023/04/20 01:22:20;;;;;;;;;;;6.80;99.90;;;;;;5094722;28;19912;-64
2023/04/20 01:24:46;;;;;;;;;;;6.80;99.90;;;;;;5094651;28;20015;-64
2023/04/20 01:27:12;;;;;;;;;;;6.80;99.90;;;;;;5094554;28;20400;-64
2023/04/20 01:29:38;;;;;;;;;;;6.80;99.90;;;;;;5094540;28;19917;-64
2023/04/20 01:32:04;;;;;;;;;;;6.80;99.90;;;;;;5094341;28;20507;-65
2023/04/20 01:34:31;;;;;;;;;;;6.90;99.90;;;;;;5093334;28;19908;-64
2023/04/20 01:36:57;;;;;;;;;;;6.90;99.90;;;;;;5094456;28;20002;-64
2023/04/20 01:39:22;;;;;;;;;;;6.90;99.90;;;;;;5094433;28;19926;-64
2023/04/20 01:41:48;;;;;;;;;;;6.90;99.90;;;;;;5094531;28;19912;-65
2023/04/20 01:44:14;;;;;;;;;;;6.90;99.90;;;;;;5094709;28;20252;-64
2023/04/20 01:46:40;;;;;;;;;;;7.00;99.90;;;;;;5098351;28;19912;-64
2023/04/20 01:49:06;;;;;;;;;;;6.90;99.90;;;;;;5096941;28;20041;-64
2023/04/20 01:51:35;;;;;;;;;;;6.80;99.90;;;;;;5098060;28;19912;-64
2023/04/20 01:54:01;;;;;;;;;;;6.80;99.90;;;;;;5096870;28;20362;-64
2023/04/20 01:56:27;;;;;;;;;;;6.80;99.90;;;;;;5097956;28;19924;-64
2023/04/20 01:58:53;;;;;;;;;;;6.80;99.90;;;;;;5098071;28;19959;-64
2023/04/20 02:01:19;;;;;;;;;;;6.70;99.90;;;;;;5097952;28;20352;-64
2023/04/20 02:03:45;;;;;;;;;;;6.70;99.90;;;;;;5097844;28;19912;-64
2023/04/20 02:06:12;;;;;;;;;;;6.80;99.90;;;;;;5097795;28;19954;-64
2023/04/20 02:08:37;;;;;;;;;;;6.80;99.90;;;;;;5096395;28;19916;-64
2023/04/20 02:11:06;;;;;;;;;;;6.70;99.90;;;;;;5096462;28;19912;-64
2023/04/20 02:13:34;;;;;;;;;;;6.70;99.90;;;;;;5097832;28;19920;-64
2023/04/20 02:16:00;;;;;;;;;;;6.60;99.90;;;;;;5096516;28;19908;-64
2023/04/20 02:18:26;;;;;;;;;;;6.50;99.90;;;;;;5097747;28;19919;-64
2023/04/20 02:20:52;;;;;;;;;;;6.30;99.90;;;;;;5096516;28;19927;-64
2023/04/20 02:23:18;;;;;;;;;;;6.30;99.90;;;;;;5097628;28;19912;-65
2023/04/20 02:25:43;;;;;;;;;;;6.10;99.90;;;;;;5079473;28;20310;-64
2023/04/20 02:28:11;;;;;;;;;;;6.20;99.90;;;;;;5079386;28;19916;-65
2023/04/20 02:30:37;;;;;;;;;;;6.10;99.90;;;;;;5079162;28;19919;-64
2023/04/20 02:33:03;;;;;;;;;;;6.20;99.90;;;;;;5097435;28;19916;-64
2023/04/20 02:35:29;;;;;;;;;;;6.30;99.90;;;;;;5079183;28;19965;-64
2023/04/20 02:37:54;;;;;;;;;;;6.30;99.90;;;;;;5079194;28;19923;-65
2023/04/20 02:40:20;;;;;;;;;;;6.30;99.90;;;;;;5097098;28;19955;-65
2023/04/20 02:42:46;;;;;;;;;;;6.20;99.90;;;;;;5079147;28;19920;-64
2023/04/20 02:45:12;;;;;;;;;;;6.20;99.90;;;;;;5097207;28;19916;-65
2023/04/20 02:47:40;;;;;;;;;;;6.20;99.90;;;;;;5078928;28;19940;-65
2023/04/20 02:50:08;;;;;;;;;;;6.10;99.90;;;;;;5078850;28;19943;-64
2023/04/20 02:52:47;;;;;;;;;;;6.00;99.90;;;;;;5078699;28;19923;-64
2023/04/20 02:55:13;;;;;;;;;;;6.00;99.90;;;;;;5078391;28;20022;-65
2023/04/20 02:57:42;;;;;;;;;;;5.90;99.90;;;;;;5078753;28;19916;-64
2023/04/20 03:00:08;;;;;;;;;;;5.90;99.90;;;;;;5078534;28;19916;-65
2023/04/20 03:02:54;;;;;;;;;;;5.80;99.90;;;;;;5096535;28;19916;-65
2023/04/20 03:05:20;;;;;;;;;;;5.70;99.90;;;;;;5078636;28;20129;-65
2023/04/20 03:07:46;;;;;;;;;;;5.60;99.90;;;;;;5078619;28;19912;-64
2023/04/20 03:10:12;;;;;;;;;;;5.70;99.90;;;;;;5078405;28;19916;-64
2023/04/20 03:13:04;;;;;;;;;;;5.70;99.90;;;;;;5094112;28;20358;-65
2023/04/20 03:15:34;;;;;;;;;;;5.60;99.90;;;;;;5078287;28;19912;-64
2023/04/20 03:18:05;;;;;;;;;;;5.50;99.90;;;;;;5078392;28;20400;-65
2023/04/20 03:20:31;;;;;;;;;;;5.50;99.90;;;;;;5096677;28;19912;-65
2023/04/20 03:22:57;;;;;;;;;;;5.50;99.90;;;;;;5082327;28;19919;-65
2023/04/20 03:25:24;;;;;;;;;;;5.60;99.90;;;;;;5095068;28;19965;-65
2023/04/20 03:27:53;;;;;;;;;;;5.60;99.90;;;;;;5094939;28;20410;-65
2023/04/20 03:30:20;;;;;;;;;;;5.60;99.90;;;;;;5094838;28;19983;-65
2023/04/20 03:32:51;;;;;;;;;;;5.60;99.90;;;;;;5094931;28;19923;-65
2023/04/20 03:35:19;;;;;;;;;;;5.70;99.90;;;;;;5096362;28;19912;-65
2023/04/20 03:37:45;;;;;;;;;;;5.80;99.90;;;;;;5094764;28;19915;-65
2023/04/20 03:40:11;;;;;;;;;;;5.70;99.90;;;;;;5096064;28;19912;-64
2023/04/20 03:42:37;;;;;;;;;;;5.80;99.90;;;;;;5095940;28;20273;-65
2023/04/20 03:45:05;;;;;;;;;;;5.70;99.90;;;;;;5094738;28;19912;-65
2023/04/20 03:47:31;;;;;;;;;;;5.70;99.90;;;;;;5129000;27;19939;-65
2023/04/20 03:49:57;;;;;;;;;;;5.80;99.90;;;;;;5095954;28;19916;-65
2023/04/20 03:52:23;;;;;;;;;;;5.80;99.90;;;;;;5095794;28;20519;-65
2023/04/20 03:54:49;;;;;;;;;;;5.90;99.90;;;;;;5094422;28;19995;-65
2023/04/20 03:57:16;;;;;;;;;;;5.90;99.90;;;;;;5094475;28;19918;-65
2023/04/20 03:59:42;;;;;;;;;;;6.00;99.90;;;;;;5095759;28;19924;-65
2023/04/20 04:02:12;;;;;;;;;;;6.00;99.90;;;;;;5094246;28;19976;-64
2023/04/20 04:04:40;;;;;;;;;;;6.00;99.90;;;;;;5094233;28;19916;-64
2023/04/20 04:07:06;;;;;;;;;;;6.20;99.90;;;;;;5094996;28;19912;-65
2023/04/20 04:09:32;;;;;;;;;;;6.20;99.90;;;;;;5094024;28;19975;-64
2023/04/20 04:11:58;;;;;;;;;;;6.30;99.90;;;;;;5094234;28;19966;-64
2023/04/20 04:14:28;;;;;;;;;;;6.40;99.90;;;;;;5094063;28;19916;-65
2023/04/20 04:16:55;;;;;;;;;;;6.50;99.90;;;;;;5077356;28;20332;-64
2023/04/20 04:19:21;;;;;;;;;;;6.50;99.90;;;;;;5094075;28;19920;-64
2023/04/20 04:21:47;;;;;;;;;;;6.60;99.90;;;;;;5094095;28;19920;-64
2023/04/20 04:24:14;;;;;;;;;;;6.50;99.90;;;;;;5079057;28;19951;-64
2023/04/20 04:27:10;;;;;;;;;;;6.50;99.90;;;;;;5091984;28;19916;-65
2023/04/20 04:29:43;;;;;;;;;;;6.60;99.90;;;;;;5076902;28;20390;-64
2023/04/20 04:32:16;;;;;;;;;;;6.80;99.90;;;;;;5077014;28;19963;-64
2023/04/20 04:34:47;;;;;;;;;;;6.90;99.90;;;;;;5095163;28;19977;-64
2023/04/20 04:37:14;;;;;;;;;;;6.80;99.90;;;;;;5076806;28;20029;-64
2023/04/20 04:39:45;;;;;;;;;;;6.70;99.90;;;;;;5076904;28;19912;-65
2023/04/20 04:42:20;;;;;;;;;;;6.80;99.90;;;;;;5077047;28;19912;-65
2023/04/20 04:44:46;;;;;;;;;;;6.70;99.90;;;;;;5076966;28;19923;-65
2023/04/20 04:47:20;;;;;;;;;;;6.70;99.90;;;;;;5076821;28;19912;-64
2023/04/20 04:49:46;;;;;;;;;;;6.70;99.90;;;;;;5076957;28;19935;-65
2023/04/20 04:52:12;;;;;;;;;;;6.80;99.90;;;;;;5094792;28;20261;-65
2023/04/20 04:54:38;;;;;;;;;;;6.90;99.90;;;;;;5095144;28;19962;-64
2023/04/20 04:57:04;;;;;;;;;;;6.90;99.90;;;;;;5095017;28;19912;-65
2023/04/20 04:59:30;;;;;;;;;;;6.90;99.90;;;;;;5094871;28;19913;-65
2023/04/20 05:01:56;;;;;;;;;;;6.90;99.90;;;;;;5094745;28;20281;-64
2023/04/20 05:04:22;;;;;;;;;;;7.00;99.90;;;;;;5094874;28;19924;-65
2023/04/20 05:06:47;;;;;;;;;;;7.10;99.90;;;;;;5094950;28;19912;-65
2023/04/20 05:09:13;;;;;;;;;;;7.00;99.90;;;;;;5094610;28;19970;-65
2023/04/20 05:11:39;;;;;;;;;;;6.90;99.90;;;;;;5094837;28;20277;-64
2023/04/20 05:14:05;;;;;;;;;;;6.80;99.90;;;;;;5094402;28;19919;-65
2023/04/20 05:16:31;;;;;;;;;;;7.00;99.90;;;;;;5094347;28;19912;-65
2023/04/20 05:18:57;;;;;;;;;;;7.10;99.90;;;;;;5094626;28;19918;-65
2023/04/20 05:21:22;;;;;;;;;;;7.00;99.90;;;;;;5098880;28;19920;-65
2023/04/20 05:23:48;;;;;;;;;;;7.00;99.90;;;;;;5099667;28;19958;-64
2023/04/20 05:26:14;;;;;;;;;;;7.20;99.90;;;;;;5099483;28;19913;-65
2023/04/20 05:28:40;;;;;;;;;;;7.20;99.90;;;;;;5098876;28;20405;-65
2023/04/20 05:31:06;;;;;;;;;;;7.30;99.90;;;;;;5099425;28;19938;-65
2023/04/20 05:33:32;;;;;;;;;;;7.30;99.90;;;;;;5099186;28;19992;-65
2023/04/20 05:35:58;;;;;;;;;;;7.20;99.90;;;;;;5096056;28;20007;-65
2023/04/20 05:38:24;;;;;;;;;;;7.20;99.90;;;;;;5098303;28;19916;-65
2023/04/20 05:40:50;;;;;;;;;;;7.10;99.90;;;;;;5098128;28;19908;-65
2023/04/20 05:43:18;;;;;;;;;;;7.30;99.90;;;;;;5097951;28;20162;-65
2023/04/20 05:45:45;;;;;;;;;;;7.40;99.90;;;;;;5098065;28;19916;-65
2023/04/20 05:48:11;;;;;;;;;;;7.50;99.90;;;;;;5098173;28;19912;-65
2023/04/20 05:50:36;;;;;;;;;;;7.50;99.90;;;;;;5097571;28;19912;-65
2023/04/20 05:53:02;;;;;;;;;;;7.60;99.90;;;;;;5098199;28;20281;-65
2023/04/20 05:55:28;;;;;;;;;;;7.90;99.90;;;;;;5098019;28;20337;-65
2023/04/20 05:57:54;;;;;;;;;;;8.00;99.90;;;;;;5097796;28;19916;-66
2023/04/20 06:00:20;;;;;;;;;;;8.10;99.90;;;;;;5098065;28;19912;-66
2023/04/20 06:02:45;;;;;;;;;;;8.20;99.90;;;;;;5098226;28;19912;-65
2023/04/20 06:05:11;;;;;;;;;;;8.30;99.90;;;;;;5097813;28;19995;-65
2023/04/20 06:07:37;;;;;;;;;;;8.40;99.90;;;;;;5097660;28;19912;-65
2023/04/20 06:10:03;;;;;;;;;;;8.60;99.90;;;;;;5097512;28;20445;-66
2023/04/20 06:12:30;;;;;;;;;;;8.90;99.90;;;;;;5097255;28;19920;-66
2023/04/20 06:15:09;;;;;;;;;;;9.20;99.90;;;;;;5094279;28;20369;-65
2023/04/20 06:17:36;;;;;;;;;;;9.20;99.90;;;;;;5084417;28;19919;-65
2023/04/20 06:20:02;;;;;;;;;;;9.70;99.90;;;;;;5088788;28;20381;-65
2023/04/20 06:22:28;;;;;;;;;;;10.10;99.90;;;;;;5096822;28;20023;-66
2023/04/20 06:24:54;;;;;;;;;;;10.40;99.90;;;;;;5097052;28;20387;-65
2023/04/20 06:27:20;;;;;;;;;;;10.40;99.90;;;;;;5097835;28;19920;-65
2023/04/20 06:29:53;;;;;;;;;;;10.70;99.90;;;;;;5097431;28;19912;-65
2023/04/20 06:32:22;;;;;;;;;;;11.00;99.90;;;;;;5085533;28;19922;-65
2023/04/20 06:34:51;;;;;;;;;;;11.20;99.90;;;;;;5096068;28;19916;-65
2023/04/20 06:37:18;;;;;;;;;;;11.40;99.90;;;;;;5096661;28;20284;-65
2023/04/20 06:39:53;;;;;;;;;;;11.60;99.90;;;;;;5097073;28;19920;-65
2023/04/20 06:42:20;;;;;;;;;;;11.90;99.90;;;;;;5096959;28;19912;-65
2023/04/20 06:44:46;;;;;;;;;;;12.10;99.90;;;;;;5097037;28;19961;-65
2023/04/20 06:47:12;;;;;;;;;;;12.50;99.90;;;;;;5096319;28;20160;-65
2023/04/20 06:49:42;;;;;;;;;;;12.80;99.90;;;;;;5096498;28;20093;-65
2023/04/20 06:52:25;;;;;;;;;;;12.90;99.90;;;;;;5095223;28;19912;-65
2023/04/20 06:54:53;;;;;;;;;;;13.10;99.90;;;;;;5095800;28;19920;-65
2023/04/20 06:57:38;;;;;;;;;;;;;;;;;;;;;
2023/04/20 07:00:10;;;;;;;;;;;13.50;99.90;;;;;;5086717;28;19912;-67
2023/04/20 07:02:58;;;;;;;;;;;13.60;99.90;;;;;;5088540;28;19912;-67
2023/04/20 07:05:37;;;;;;;;;;;13.90;99.90;;;;;;5085526;28;20324;-67
2023/04/20 07:08:07;;;;;;;;;;;14.20;99.90;;;;;;5081190;28;19923;-66
2023/04/20 07:10:40;;;;;;;;;;;14.40;99.90;;;;;;5074261;28;19920;-66
2023/04/20 07:13:08;;;;;;;;;;;14.70;99.90;;;;;;5090441;28;19923;-67
2023/04/20 07:18:40;;;;;;;;;;;15.40;99.60;;;;;;5088359;28;19912;-67
2023/04/20 07:21:06;;;;;;;;;;;15.70;98.90;;;;;;5091071;28;19914;-66
2023/04/20 07:23:32;;;;;;;;;;;15.80;97.90;;;;;;5083548;28;19969;-67
2023/04/20 07:25:58;;;;;;;;;;;15.50;96.40;;;;;;5092719;28;20261;-66
2023/04/20 07:28:24;;;;;;;;;;;15.40;95.90;;;;;;5089071;28;19923;-67
2023/04/20 07:30:49;;;;;;;;;;;15.70;94.60;;;;;;5092777;28;20018;-66
2023/04/20 07:33:15;;;;;;;;;;;15.90;94.60;;;;;;5095484;28;19938;-67
2023/04/20 07:35:41;;;;;;;;;;;16.10;93.30;;;;;;5095554;28;19912;-66
2023/04/20 07:38:07;;;;;;;;;;;15.90;94.20;;;;;;5093469;28;19918;-66
2023/04/20 07:40:33;;;;;;;;;;;16.40;95.00;;;;;;5095470;28;19975;-67
2023/04/20 07:42:59;;;;;;;;;;;16.50;93.90;;;;;;5083567;28;20030;-67
2023/04/20 07:45:24;;;;;;;;;;;16.80;92.80;;;;;;5074814;28;19912;-67
2023/04/20 07:47:52;;;;;;;;;;;17.00;91.30;;;;;;5075193;28;19920;-66
2023/04/20 07:50:24;;;;;;;;;;;17.10;92.10;;;;;;5074851;28;19913;-66
2023/04/20 07:52:57;;;;;;;;;;;17.20;89.20;;;;;;5074807;28;19924;-66
2023/04/20 07:55:26;;;;;;;;;;;17.40;86.90;;;;;;5075005;28;19934;-66
2023/04/20 07:57:53;;;;;;;;;;;17.90;89.10;;;;;;5079710;28;19924;-66
2023/04/20 08:00:19;;;;;;;;;;;18.20;85.80;;;;;;5095831;28;19914;-66
2023/04/20 08:02:45;;;;;;;;;;;17.80;86.40;;;;;;5095618;28;19934;-67
2023/04/20 08:05:10;;;;;;;;;;;18.10;84.30;;;;;;5090834;28;20362;-66
2023/04/20 08:07:36;;;;;;;;;;;18.20;79.70;;;;;;5094577;28;19911;-67
2023/04/20 08:10:02;;;;;;;;;;;18.40;81.70;;;;;;5102803;28;19998;-66
2023/04/20 08:12:28;;;;;;;;;;;18.70;79.60;;;;;;5096467;28;19922;-66
2023/04/20 08:14:58;;;;;;;;;;;19.10;75.20;;;;;;5086923;28;19916;-66
2023/04/20 08:17:24;;;;;;;;;;;19.00;76.70;;;;;;5092274;28;20415;-66
2023/04/20 08:19:50;;;;;;;;;;;19.00;75.60;;;;;;5092978;28;19948;-66
2023/04/20 08:22:16;;;;;;;;;;;19.00;75.70;;;;;;5094726;28;19916;-66
2023/04/20 08:24:41;;;;;;;;;;;19.30;78.20;;;;;;5093303;28;19959;-66
2023/04/20 08:27:07;;;;;;;;;;;19.60;84.20;;;;;;5090531;28;19912;-66
2023/04/20 08:29:33;;;;;;;;;;;19.70;85.50;;;;;;5094603;28;19938;-66
2023/04/20 08:31:59;;;;;;;;;;;20.00;87.40;;;;;;5096189;28;19913;-67
2023/04/20 08:34:25;;;;;;;;;;;19.90;79.80;;;;;;5095327;28;19970;-66
2023/04/20 08:36:51;;;;;;;;;;;20.20;89.30;;;;;;5102764;28;19920;-66
2023/04/20 08:39:20;;;;;;;;;;;20.60;83.20;;;;;;5115344;28;19994;-66
2023/04/20 08:41:46;;;;;;;;;;;20.80;78.60;;;;;;5107063;28;19913;-66
2023/04/20 08:44:12;;;;;;;;;;;20.90;82.40;;;;;;5094956;28;19936;-67
2023/04/20 08:46:40;;;;;;;;;;;21.10;75.50;;;;;;5095067;28;20273;-66
2023/04/20 08:49:10;;;;;;;;;;;21.00;78.90;;;;;;5093895;28;19994;-66
2023/04/20 08:51:36;;;;;;;;;;;21.30;78.00;;;;;;5094265;28;19912;-66
2023/04/20 08:54:05;;;;;;;;;;;21.40;76.40;;;;;;5094600;28;19919;-66
2023/04/20 08:56:33;;;;;;;;;;;21.80;78.30;;;;;;5094093;28;19924;-66
2023/04/20 08:58:59;;;;;;;;;;;21.70;77.60;;;;;;5094490;28;19916;-66
2023/04/20 09:01:28;;;;;;;;;;;21.60;75.80;;;;;;5094735;28;20393;-66
2023/04/20 09:03:54;;;;;;;;;;;21.60;80.90;;;;;;5092846;28;19916;-66
2023/04/20 09:06:21;;;;;;;;;;;21.40;82.90;;;;;;5094347;28;19923;-66
2023/04/20 09:08:47;;;;;;;;;;;21.50;82.50;;;;;;5094455;28;20293;-66
2023/04/20 09:11:20;;;;;;;;;;;21.50;76.70;;;;;;5094327;28;19920;-66
2023/04/20 09:13:59;;;;;;;;;;;20.80;71.50;;;;;;5094607;28;20281;-66
2023/04/20 09:16:25;;;;;;;;;;;19.80;78.40;;;;;;5094382;28;19912;-66
2023/04/20 09:18:52;;;;;;;;;;;19.30;77.80;;;;;;5094493;28;19954;-66
2023/04/20 09:21:18;;;;;;;;;;;18.80;78.90;;;;;;5094801;28;19912;-66
2023/04/20 09:23:54;;;;;;;;;;;19.00;76.90;;;;;;5094310;28;19916;-66
2023/04/20 09:26:20;;;;;;;;;;;18.60;76.10;;;;;;5093472;28;19939;-66
2023/04/20 09:28:46;;;;;;;;;;;18.00;75.00;;;;;;5093781;28;19908;-66
2023/04/20 09:31:20;;;;;;;;;;;18.00;79.10;;;;;;5094457;28;19913;-66
2023/04/20 09:34:15;;;;;;;;;;;17.80;81.10;;;;;;5093908;28;19926;-66
2023/04/20 09:36:50;;;;;;;;;;;17.90;79.50;;;;;;5080340;28;19916;-67
2023/04/20 09:39:21;;;;;;;;;;;18.00;81.20;;;;;;5093735;28;19992;-67
2023/04/20 09:41:47;;;;;;;;;;;18.00;81.30;;;;;;5077718;28;19912;-66
2023/04/20 09:44:13;;;;;;;;;;;17.90;80.00;;;;;;5074028;28;19916;-67
2023/04/20 09:46:40;;;;;;;;;;;17.80;80.80;;;;;;5073773;28;20340;-67
2023/04/20 09:49:07;;;;;;;;;;;17.80;82.10;;;;;;5074333;28;19916;-67
2023/04/20 09:51:34;;;;;;;;;;;18.00;85.80;;;;;;5090955;28;20408;-67
2023/04/20 09:54:01;;;;;;;;;;;18.20;84.00;;;;;;5094042;28;19916;-67
2023/04/20 09:56:27;;;;;;;;;;;18.40;78.90;;;;;;5090376;28;19945;-66
2023/04/20 09:58:53;;;;;;;;;;;18.80;87.10;;;;;;5093465;28;20358;-66
2023/04/20 10:01:21;;;;;;;;;;;19.60;81.70;;;;;;5094231;28;19918;-67
2023/04/20 10:03:54;;;;;;;;;;;20.20;81.90;;;;;;5094858;28;19912;-66
2023/04/20 10:06:21;;;;;;;;;;;20.90;86.60;;;;;;5095340;28;19939;-66
2023/04/20 10:08:48;;;;;;;;;;;21.40;78.20;;;;;;5073165;28;19919;-66
2023/04/20 10:11:27;;;;;;;;;;;21.40;71.90;;;;;;5093538;28;20188;-67
2023/04/20 10:13:54;;;;;;;;;;;21.20;74.30;;;;;;5095668;28;19927;-66
2023/04/20 10:16:20;;;;;;;;;;;20.70;72.30;;;;;;5078016;28;19957;-67
2023/04/20 10:18:55;;;;;;;;;;;20.50;66.50;;;;;;5096090;28;20354;-67
2023/04/20 10:21:21;;;;;;;;;;;20.40;68.80;;;;;;5097601;28;19919;-66
2023/04/20 10:23:48;;;;;;;;;;;20.30;64.90;;;;;;5091440;28;20398;-67
2023/04/20 10:26:13;;;;;;;;;;;19.50;71.40;;;;;;5091443;28;19963;-66
2023/04/20 10:28:40;;;;;;;;;;;19.90;71.40;;;;;;5097103;28;19970;-67
2023/04/20 10:31:06;;;;;;;;;;;20.00;70.20;;;;;;5097383;28;19958;-67
2023/04/20 10:33:32;;;;;;;;;;;20.80;71.90;;;;;;5098194;28;19920;-67
2023/04/20 10:35:58;;;;;;;;;;;20.90;68.70;;;;;;5097800;28;19919;-66
2023/04/20 10:38:31;;;;;;;;;;;20.50;66.30;;;;;;5097733;28;19916;-68
2023/04/20 10:41:06;;;;;;;;;;;20.70;70.20;;;;;;5097037;28;19912;-66
2023/04/20 10:43:34;;;;;;;;;;;21.50;73.10;;;;;;5096979;28;19912;-65
2023/04/20 10:45:59;;;;;;;;;;;22.00;69.90;;;;;;5097256;28;19953;-66
2023/04/20 10:48:26;;;;;;;;;;;21.40;69.20;;;;;;5096853;28;19963;-65
2023/04/20 10:50:51;;;;;;;;;;;21.10;68.30;;;;;;5097015;28;19923;-65
2023/04/20 10:53:21;;;;;;;;;;;20.90;69.50;;;;;;5096871;28;19916;-65
2023/04/20 10:55:56;;;;;;;;;;;20.50;68.30;;;;;;5096513;28;19982;-66
2023/04/20 10:58:23;;;;;;;;;;;20.50;69.20;;;;;;5095594;28;20353;-68
2023/04/20 11:00:59;;;;;;;;;;;19.90;68.80;;;;;;5094070;28;19912;-67
2023/04/20 11:03:29;;;;;;;;;;;19.60;75.30;;;;;;5091366;28;19912;-68
2023/04/20 11:05:59;;;;;;;;;;;20.50;73.70;;;;;;5096053;28;19919;-66
2023/04/20 11:08:41;;;;;;;;;;;20.60;66.90;;;;;;5076348;28;19917;-66
2023/04/20 11:11:18;;;;;;;;;;;20.10;63.70;;;;;;5075944;28;19920;-66
2023/04/20 11:13:44;;;;;;;;;;;19.30;66.40;;;;;;5093536;28;19920;-66
2023/04/20 11:16:13;;;;;;;;;;;19.40;63.70;;;;;;5096249;28;20284;-65
2023/04/20 11:18:47;;;;;;;;;;;19.30;65.90;;;;;;5091128;28;20369;-66
2023/04/20 11:21:13;;;;;;;;;;;19.10;64.20;;;;;;5091077;28;19916;-66
2023/04/20 11:23:40;;;;;;;;;;;19.30;67.20;;;;;;5095512;28;20457;-65
2023/04/20 11:26:06;;;;;;;;;;;18.90;65.50;;;;;;5094975;28;20014;-66
2023/04/20 11:28:33;;;;;;;;;;;19.10;65.00;;;;;;5095754;28;19916;-66
2023/04/20 11:30:59;;;;;;;;;;;19.20;64.80;;;;;;5093966;28;19916;-66
2023/04/20 11:33:29;;;;;;;;;;;18.90;66.50;;;;;;5095011;28;19933;-65
2023/04/20 11:35:55;;;;;;;;;;;19.10;66.50;;;;;;5095457;28;19970;-66
2023/04/20 11:38:27;;;;;;;;;;;19.20;63.20;;;;;;5095995;28;19919;-67
2023/04/20 11:40:53;;;;;;;;;;;19.20;62.10;;;;;;5095728;28;19923;-66
2023/04/20 11:43:19;;;;;;;;;;;19.50;63.70;;;;;;5095990;28;19914;-66
2023/04/20 11:45:45;;;;;;;;;;;18.80;63.00;;;;;;5094684;28;19955;-66
2023/04/20 11:48:10;;;;;;;;;;;18.80;68.40;;;;;;5094739;28;19916;-65
2023/04/20 11:50:36;;;;;;;;;;;19.50;66.50;;;;;;5095065;28;19977;-66
2023/04/20 11:53:02;;;;;;;;;;;20.20;68.20;;;;;;5094950;28;19923;-66
2023/04/20 11:55:28;;;;;;;;;;;20.50;66.50;;;;;;5094668;28;20005;-66
2023/04/20 11:57:54;;;;;;;;;;;20.80;65.70;;;;;;5095289;28;20307;-66
2023/04/20 12:00:23;;;;;;;;;;;21.00;62.80;;;;;;5095017;28;19912;-65
2023/04/20 12:02:49;;;;;;;;;;;21.20;59.80;;;;;;5091762;28;19909;-66
2023/04/20 12:05:15;;;;;;;;;;;21.70;62.50;;;;;;5094693;28;19923;-66
2023/04/20 12:07:42;;;;;;;;;;;22.20;58.50;;;;;;5094683;28;19908;-66
2023/04/20 12:10:08;;;;;;;;;;;22.30;64.60;;;;;;5095078;28;20333;-66
2023/04/20 12:12:34;;;;;;;;;;;22.90;55.50;;;;;;5092224;28;19960;-66
2023/04/20 12:14:59;;;;;;;;;;;23.60;55.80;;;;;;5076760;28;19955;-68
2023/04/20 12:17:25;;;;;;;;;;;24.00;57.40;;;;;;5087550;28;19912;-68
2023/04/20 12:19:51;;;;;;;;;;;23.10;57.20;;;;;;5094000;28;19916;-66
2023/04/20 12:22:17;;;;;;;;;;;22.40;58.10;;;;;;5094910;28;19912;-66
2023/04/20 12:24:42;;;;;;;;;;;22.50;57.40;;;;;;5094474;28;19970;-65
2023/04/20 12:27:08;;;;;;;;;;;21.50;59.70;;;;;;5081236;28;19956;-65
2023/04/20 12:29:34;;;;;;;;;;;21.90;60.50;;;;;;5074135;28;19919;-67
2023/04/20 12:32:00;;;;;;;;;;;22.80;57.30;;;;;;5086475;28;20369;-65
2023/04/20 12:34:25;;;;;;;;;;;23.10;57.30;;;;;;5094786;28;19920;-65
2023/04/20 12:36:51;;;;;;;;;;;23.40;56.80;;;;;;5088329;28;19920;-67
2023/04/20 12:39:17;;;;;;;;;;;23.70;59.80;;;;;;5093333;28;19914;-67
2023/04/20 12:41:43;;;;;;;;;;;24.00;55.80;;;;;;5094430;28;19969;-65
2023/04/20 12:44:10;;;;;;;;;;;23.10;54.60;;;;;;5094971;28;20136;-65
2023/04/20 12:46:35;;;;;;;;;;;23.50;56.20;;;;;;5091803;28;19965;-65
2023/04/20 12:49:01;;;;;;;;;;;22.80;57.80;;;;;;5094688;28;19998;-65
2023/04/20 12:51:27;;;;;;;;;;;22.80;58.60;;;;;;5086720;28;19920;-65
2023/04/20 12:53:53;;;;;;;;;;;23.20;60.10;;;;;;5094423;28;20294;-65
2023/04/20 12:56:19;;;;;;;;;;;23.50;59.80;;;;;;5087747;28;20393;-65
2023/04/20 12:58:46;;;;;;;;;;;23.70;60.50;;;;;;5075010;28;19983;-65
2023/04/20 13:01:11;;;;;;;;;;;23.90;58.40;;;;;;5074759;28;19999;-65
2023/04/20 13:03:37;;;;;;;;;;;23.90;56.50;;;;;;5074392;28;19956;-65
2023/04/20 13:06:03;;;;;;;;;;;23.90;60.70;;;;;;5074697;28;19931;-65
2023/04/20 13:08:29;;;;;;;;;;;23.20;57.90;;;;;;5074513;28;19920;-65
2023/04/20 13:10:55;;;;;;;;;;;22.60;58.20;;;;;;5074490;28;19920;-65
2023/04/20 13:13:21;;;;;;;;;;;22.60;57.60;;;;;;5074383;28;19964;-65
2023/04/20 13:15:46;;;;;;;;;;;22.20;59.40;;;;;;5074219;28;20376;-65
2023/04/20 13:18:14;;;;;;;;;;;21.90;59.80;;;;;;5074423;28;19917;-65
2023/04/20 13:20:40;;;;;;;;;;;21.50;58.00;;;;;;5074448;28;19954;-65
2023/04/20 13:23:05;;;;;;;;;;;20.90;57.90;;;;;;5074497;28;19912;-65
2023/04/20 13:25:32;;;;;;;;;;;20.50;62.60;;;;;;5074551;28;19913;-65
2023/04/20 13:27:58;;;;;;;;;;;20.40;64.30;;;;;;5074328;28;19912;-65
2023/04/20 13:30:25;;;;;;;;;;;20.30;62.10;;;;;;5074231;28;20022;-65
2023/04/20 13:32:51;;;;;;;;;;;20.20;63.50;;;;;;5074245;28;19917;-66
2023/04/20 13:35:17;;;;;;;;;;;20.30;62.60;;;;;;5074447;28;19927;-65
2023/04/20 13:37:43;;;;;;;;;;;20.10;59.20;;;;;;5074382;28;19912;-66
2023/04/20 13:40:09;;;;;;;;;;;19.90;60.10;;;;;;5074193;28;19963;-65
2023/04/20 13:42:35;;;;;;;;;;;19.90;60.50;;;;;;5078036;28;20454;-65
2023/04/20 13:45:02;;;;;;;;;;;19.70;63.20;;;;;;5078083;28;19916;-65
2023/04/20 13:47:28;;;;;;;;;;;19.30;64.20;;;;;;5077895;28;19912;-65
2023/04/20 13:49:54;;;;;;;;;;;19.30;64.30;;;;;;5077875;28;19990;-65
2023/04/20 13:52:19;;;;;;;;;;;19.60;62.10;;;;;;5078102;28;19912;-65
2023/04/20 13:54:45;;;;;;;;;;;19.80;65.30;;;;;;5077654;28;19916;-65
2023/04/20 13:57:11;;;;;;;;;;;20.20;65.20;;;;;;5078003;28;19943;-65
2023/04/20 13:59:37;;;;;;;;;;;20.50;64.00;;;;;;5077812;28;19952;-65
2023/04/20 14:02:03;;;;;;;;;;;20.60;60.50;;;;;;5077702;28;20294;-67
2023/04/20 14:04:29;;;;;;;;;;;20.70;60.90;;;;;;5078176;28;19924;-67
2023/04/20 14:06:54;;;;;;;;;;;20.90;64.10;;;;;;5077917;28;19912;-67
2023/04/20 14:09:21;;;;;;;;;;;21.20;58.30;;;;;;5077550;28;20007;-67
2023/04/20 14:11:46;;;;;;;;;;;21.30;59.20;;;;;;5077758;28;20439;-67
2023/04/20 14:14:12;;;;;;;;;;;21.50;59.50;;;;;;5077585;28;19979;-65
2023/04/20 14:16:44;;;;;;;;;;;21.60;60.30;;;;;;5077515;28;19912;-66
2023/04/20 14:19:10;;;;;;;;;;;21.40;65.70;;;;;;5077518;28;19980;-66
2023/04/20 14:21:35;;;;;;;;;;;21.50;63.20;;;;;;5077329;28;19963;-66
2023/04/20 14:24:01;;;;;;;;;;;21.40;61.70;;;;;;5077520;28;19913;-67
2023/04/20 14:26:27;;;;;;;;;;;21.10;59.40;;;;;;5077608;28;19965;-66
2023/04/20 14:28:53;;;;;;;;;;;21.20;60.50;;;;;;5077615;28;19920;-67